sensor_id;sensor_type;location;lat;lon;timestamp;pressure;altitude;pressure_sealevel;temperature;humidity
23241;BME280;11789;53.482;9.862;2023-02-21T00:00:05;101350.25;;;7.65;100.00
23241;BME280;11789;53.482;9.862;2023-02-21T00:02:49;101360.53;;;7.65;100.00
23241;BME280;11789;53.482;9.862;2023-02-21T00:05:32;101359.69;;;7.65;100.00
23241;BME280;11789;53.482;9.862;2023-02-21T00:08:16;101359.69;;;7.65;100.00
23241;BME280;11789;53.482;9.862;2023-02-21T00:11:00;101369.97;;;7.65;100.00
23241;BME280;11789;53.482;9.862;2023-02-21T00:13:45;101369.16;;;7.66;100.00
23241;BME280;11789;53.482;9.862;2023-02-21T00:16:28;101369.16;;;7.66;100.00
23241;BME280;11789;53.482;9.862;2023-02-21T00:19:12;101369.09;;;7.64;100.00
23241;BME280;11789;53.482;9.862;2023-02-21T00:21:56;101373.38;;;7.64;100.00
23241;BME280;11789;53.482;9.862;2023-02-21T00:24:40;101378.50;;;7.62;100.00
23241;BME280;11789;53.482;9.862;2023-02-21T00:27:24;101384.53;;;7.63;100.00
23241;BME280;11789;53.482;9.862;2023-02-21T00:30:10;101382.78;;;7.62;100.00
23241;BME280;11789;53.482;9.862;2023-02-21T00:32:54;101386.22;;;7.62;100.00
23241;BME280;11789;53.482;9.862;2023-02-21T00:35:38;101381.94;;;7.61;100.00
23241;BME280;11789;53.482;9.862;2023-02-21T00:38:22;101395.66;;;7.62;100.00
23241;BME280;11789;53.482;9.862;2023-02-21T00:41:06;101400.81;;;7.62;100.00
23241;BME280;11789;53.482;9.862;2023-02-21T00:43:51;101392.16;;;7.60;100.00
23241;BME280;11789;53.482;9.862;2023-02-21T00:46:35;101388.78;;;7.61;100.00
23241;BME280;11789;53.482;9.862;2023-02-21T00:49:19;101387.88;;;7.59;100.00
23241;BME280;11789;53.482;9.862;2023-02-21T00:52:03;101392.16;;;7.60;100.00
23241;BME280;11789;53.482;9.862;2023-02-21T00:54:47;101399.03;;;7.59;100.00
23241;BME280;11789;53.482;9.862;2023-02-21T00:57:31;101396.44;;;7.59;100.00
23241;BME280;11789;53.482;9.862;2023-02-21T01:00:19;101394.72;;;7.58;100.00
23241;BME280;11789;53.482;9.862;2023-02-21T01:03:04;101398.12;;;7.57;100.00
23241;BME280;11789;53.482;9.862;2023-02-21T01:05:49;101402.44;;;7.57;100.00
23241;BME280;11789;53.482;9.862;2023-02-21T01:08:33;101397.28;;;7.57;100.00
23241;BME280;11789;53.482;9.862;2023-02-21T01:11:19;101397.28;;;7.57;100.00
23241;BME280;11789;53.482;9.862;2023-02-21T01:14:04;101395.53;;;7.56;100.00
23241;BME280;11789;53.482;9.862;2023-02-21T01:16:48;101398.94;;;7.54;100.00
23241;BME280;11789;53.482;9.862;2023-02-21T01:19:32;101398.12;;;7.56;100.00
23241;BME280;11789;53.482;9.862;2023-02-21T01:22:17;101398.06;;;7.54;100.00
23241;BME280;11789;53.482;9.862;2023-02-21T01:25:01;101403.22;;;7.54;100.00
23241;BME280;11789;53.482;9.862;2023-02-21T01:27:45;101410.91;;;7.52;100.00
23241;BME280;11789;53.482;9.862;2023-02-21T01:30:29;101398.88;;;7.51;100.00
23241;BME280;11789;53.482;9.862;2023-02-21T01:33:13;101399.75;;;7.52;100.00
23241;BME280;11789;53.482;9.862;2023-02-21T01:35:57;101391.16;;;7.51;100.00
23241;BME280;11789;53.482;9.862;2023-02-21T01:38:42;101394.59;;;7.50;100.00
23241;BME280;11789;53.482;9.862;2023-02-21T01:41:26;101401.41;;;7.50;100.00
23241;BME280;11789;53.482;9.862;2023-02-21T01:44:38;101393.66;;;7.48;100.00
23241;BME280;11789;53.482;9.862;2023-02-21T01:47:23;101398.81;;;7.48;100.00
23241;BME280;11789;53.482;9.862;2023-02-21T01:50:15;101392.81;;;7.48;100.00
23241;BME280;11789;53.482;9.862;2023-02-21T01:53:04;101390.22;;;7.48;100.00
23241;BME280;11789;53.482;9.862;2023-02-21T01:55:49;101397.94;;;7.48;100.00
23241;BME280;11789;53.482;9.862;2023-02-21T01:58:34;101407.38;;;7.47;100.00
23241;BME280;11789;53.482;9.862;2023-02-21T02:04:42;101410.78;;;7.46;100.00
23241;BME280;11789;53.482;9.862;2023-02-21T02:07:27;101403.91;;;7.45;100.00
23241;BME280;11789;53.482;9.862;2023-02-21T02:10:13;101400.44;;;7.43;100.00
23241;BME280;11789;53.482;9.862;2023-02-21T02:15:42;101403.00;;;7.43;100.00
23241;BME280;11789;53.482;9.862;2023-02-21T02:18:36;101404.72;;;7.43;100.00
23241;BME280;11789;53.482;9.862;2023-02-21T02:24:36;101402.97;;;7.42;100.00
23241;BME280;11789;53.482;9.862;2023-02-21T02:35:34;101424.34;;;7.39;100.00
23241;BME280;11789;53.482;9.862;2023-02-21T02:38:15;101423.47;;;7.39;100.00
23241;BME280;11789;53.482;9.862;2023-02-21T02:46:21;101415.72;;;7.37;100.00
23241;BME280;11789;53.482;9.862;2023-02-21T02:49:06;101414.00;;;7.36;100.00
23241;BME280;11789;53.482;9.862;2023-02-21T02:51:34;101417.41;;;7.35;100.00
23241;BME280;11789;53.482;9.862;2023-02-21T02:54:00;101419.09;;;7.35;100.00
23241;BME280;11789;53.482;9.862;2023-02-21T02:56:25;101414.84;;;7.35;100.00
23241;BME280;11789;53.482;9.862;2023-02-21T03:07:11;101417.38;;;7.34;100.00
23241;BME280;11789;53.482;9.862;2023-02-21T03:15:10;101420.75;;;7.31;100.00
23241;BME280;11789;53.482;9.862;2023-02-21T03:17:42;101419.03;;;7.30;100.00
23241;BME280;11789;53.482;9.862;2023-02-21T03:20:12;101424.16;;;7.30;100.00
23241;BME280;11789;53.482;9.862;2023-02-21T03:22:39;101424.13;;;7.28;100.00
23241;BME280;11789;53.482;9.862;2023-02-21T03:25:07;101420.69;;;7.28;100.00
23241;BME280;11789;53.482;9.862;2023-02-21T03:27:34;101423.25;;;7.28;100.00
23241;BME280;11789;53.482;9.862;2023-02-21T03:30:03;101418.94;;;7.27;100.00
23241;BME280;11789;53.482;9.862;2023-02-21T03:32:37;101423.22;;;7.26;100.00
23241;BME280;11789;53.482;9.862;2023-02-21T03:35:04;101423.22;;;7.26;100.00
23241;BME280;11789;53.482;9.862;2023-02-21T03:39:57;101425.78;;;7.26;100.00
23241;BME280;11789;53.482;9.862;2023-02-21T03:42:23;101428.34;;;7.25;100.00
23241;BME280;11789;53.482;9.862;2023-02-21T03:44:48;101424.06;;;7.25;100.00
23241;BME280;11789;53.482;9.862;2023-02-21T03:47:14;101424.00;;;7.24;100.00
23241;BME280;11789;53.482;9.862;2023-02-21T03:49:39;101427.44;;;7.23;100.00
23241;BME280;11789;53.482;9.862;2023-02-21T03:52:05;101430.84;;;7.22;100.00
23241;BME280;11789;53.482;9.862;2023-02-21T03:54:30;101430.84;;;7.22;100.00
23241;BME280;11789;53.482;9.862;2023-02-21T03:56:56;101431.69;;;7.21;100.00
23241;BME280;11789;53.482;9.862;2023-02-21T03:59:21;101431.62;;;7.19;100.00
23241;BME280;11789;53.482;9.862;2023-02-21T04:01:47;101429.06;;;7.19;100.00
23241;BME280;11789;53.482;9.862;2023-02-21T04:04:12;101431.59;;;7.18;100.00
23241;BME280;11789;53.482;9.862;2023-02-21T04:06:38;101435.03;;;7.18;100.00
23241;BME280;11789;53.482;9.862;2023-02-21T04:09:03;101437.59;;;7.17;100.00
23241;BME280;11789;53.482;9.862;2023-02-21T04:11:30;101438.38;;;7.14;100.00
23241;BME280;11789;53.482;9.862;2023-02-21T04:13:55;101434.94;;;7.14;100.00
23241;BME280;11789;53.482;9.862;2023-02-21T04:16:21;101428.91;;;7.13;100.00
23241;BME280;11789;53.482;9.862;2023-02-21T04:18:46;101434.03;;;7.12;100.00
23241;BME280;11789;53.482;9.862;2023-02-21T04:21:15;101432.34;;;7.12;100.00
23241;BME280;11789;53.482;9.862;2023-02-21T04:23:41;101437.44;;;7.11;100.00
23241;BME280;11789;53.482;9.862;2023-02-21T04:26:06;101430.56;;;7.10;100.00
23241;BME280;11789;53.482;9.862;2023-02-21T04:28:32;101435.72;;;7.10;100.00
23241;BME280;11789;53.482;9.862;2023-02-21T04:30:57;101433.16;;;7.10;100.00
23241;BME280;11789;53.482;9.862;2023-02-21T04:33:23;101441.66;;;7.09;100.00
23241;BME280;11789;53.482;9.862;2023-02-21T04:35:48;101439.94;;;7.08;100.00
23241;BME280;11789;53.482;9.862;2023-02-21T04:38:15;101434.81;;;7.08;100.00
23241;BME280;11789;53.482;9.862;2023-02-21T04:40:40;101435.62;;;7.05;100.00
23241;BME280;11789;53.482;9.862;2023-02-21T04:43:06;101431.28;;;7.04;100.00
23241;BME280;11789;53.482;9.862;2023-02-21T04:45:31;101437.25;;;7.03;100.00
23241;BME280;11789;53.482;9.862;2023-02-21T04:47:57;101439.91;;;7.06;100.00
23241;BME280;11789;53.482;9.862;2023-02-21T04:50:23;101439.84;;;7.03;100.00
23241;BME280;11789;53.482;9.862;2023-02-21T04:52:48;101435.56;;;7.03;100.00
23241;BME280;11789;53.482;9.862;2023-02-21T04:55:14;101432.09;;;7.01;100.00
23241;BME280;11789;53.482;9.862;2023-02-21T04:57:40;101440.66;;;7.00;100.00
23241;BME280;11789;53.482;9.862;2023-02-21T05:00:06;101439.81;;;7.01;100.00
23241;BME280;11789;53.482;9.862;2023-02-21T05:02:33;101447.50;;;7.00;100.00
23241;BME280;11789;53.482;9.862;2023-02-21T05:04:58;101440.66;;;7.00;100.00
23241;BME280;11789;53.482;9.862;2023-02-21T05:07:24;101448.38;;;7.00;100.00
23241;BME280;11789;53.482;9.862;2023-02-21T05:09:50;101449.97;;;6.97;100.00
23241;BME280;11789;53.482;9.862;2023-02-21T05:12:16;101444.81;;;6.95;100.00
23241;BME280;11789;53.482;9.862;2023-02-21T05:14:41;101438.62;;;6.87;100.00
23241;BME280;11789;53.482;9.862;2023-02-21T05:17:08;101439.44;;;6.86;100.00
23241;BME280;11789;53.482;9.862;2023-02-21T05:19:33;101436.84;;;6.85;100.00
23241;BME280;11789;53.482;9.862;2023-02-21T05:22:01;101439.44;;;6.85;100.00
23241;BME280;11789;53.482;9.862;2023-02-21T05:24:28;101434.31;;;6.86;100.00
23241;BME280;11789;53.482;9.862;2023-02-21T05:26:55;101433.47;;;6.87;100.00
23241;BME280;11789;53.482;9.862;2023-02-21T05:29:21;101444.59;;;6.86;100.00
23241;BME280;11789;53.482;9.862;2023-02-21T05:31:47;101438.62;;;6.87;100.00
23241;BME280;11789;53.482;9.862;2023-02-21T05:34:14;101447.16;;;6.86;100.00
23241;BME280;11789;53.482;9.862;2023-02-21T05:36:39;101444.56;;;6.85;100.00
23241;BME280;11789;53.482;9.862;2023-02-21T05:39:06;101441.09;;;6.84;100.00
23241;BME280;11789;53.482;9.862;2023-02-21T05:41:32;101442.81;;;6.84;100.00
23241;BME280;11789;53.482;9.862;2023-02-21T05:43:58;101451.31;;;6.81;100.00
23241;BME280;11789;53.482;9.862;2023-02-21T05:46:26;101452.94;;;6.78;100.00
23241;BME280;11789;53.482;9.862;2023-02-21T05:48:52;101455.50;;;6.76;100.00
23241;BME280;11789;53.482;9.862;2023-02-21T05:51:18;101455.47;;;6.74;100.00
23241;BME280;11789;53.482;9.862;2023-02-21T05:53:44;101461.34;;;6.70;100.00
23241;BME280;11789;53.482;9.862;2023-02-21T05:56:11;101459.66;;;6.71;100.00
23241;BME280;11789;53.482;9.862;2023-02-21T05:58:37;101461.28;;;6.69;100.00
23241;BME280;11789;53.482;9.862;2023-02-21T06:01:03;101464.69;;;6.68;100.00
23241;BME280;11789;53.482;9.862;2023-02-21T06:03:28;101459.50;;;6.65;100.00
23241;BME280;11789;53.482;9.862;2023-02-21T06:05:54;101462.84;;;6.62;100.00
23241;BME280;11789;53.482;9.862;2023-02-21T06:08:19;101460.28;;;6.62;100.00
23241;BME280;11789;53.482;9.862;2023-02-21T06:10:45;101463.69;;;6.61;100.00
23241;BME280;11789;53.482;9.862;2023-02-21T06:13:10;101468.78;;;6.60;100.00
23241;BME280;11789;53.482;9.862;2023-02-21T06:15:36;101477.31;;;6.59;100.00
23241;BME280;11789;53.482;9.862;2023-02-21T06:18:01;101478.19;;;6.59;100.00
23241;BME280;11789;53.482;9.862;2023-02-21T06:20:27;101476.50;;;6.60;100.00
23241;BME280;11789;53.482;9.862;2023-02-21T06:22:52;101488.41;;;6.58;100.00
23241;BME280;11789;53.482;9.862;2023-02-21T06:25:18;101493.53;;;6.56;100.00
23241;BME280;11789;53.482;9.862;2023-02-21T06:27:43;101490.09;;;6.56;100.00
23241;BME280;11789;53.482;9.862;2023-02-21T06:30:09;101489.22;;;6.55;100.00
23241;BME280;11789;53.482;9.862;2023-02-21T06:32:35;101494.37;;;6.55;100.00
23241;BME280;11789;53.482;9.862;2023-02-21T06:35:01;101502.06;;;6.55;100.00
23241;BME280;11789;53.482;9.862;2023-02-21T06:37:27;101508.91;;;6.55;100.00
23241;BME280;11789;53.482;9.862;2023-02-21T06:39:53;101515.78;;;6.56;100.00
23241;BME280;11789;53.482;9.862;2023-02-21T06:42:18;101509.78;;;6.55;100.00
23241;BME280;11789;53.482;9.862;2023-02-21T06:44:45;101514.03;;;6.55;100.00
23241;BME280;11789;53.482;9.862;2023-02-21T06:47:11;101512.28;;;6.54;100.00
23241;BME280;11789;53.482;9.862;2023-02-21T06:49:37;101523.47;;;6.54;100.00
23241;BME280;11789;53.482;9.862;2023-02-21T06:52:03;101521.75;;;6.55;100.00
23241;BME280;11789;53.482;9.862;2023-02-21T06:54:28;101526.88;;;6.55;100.00
23241;BME280;11789;53.482;9.862;2023-02-21T06:56:55;101525.19;;;6.55;100.00
23241;BME280;11789;53.482;9.862;2023-02-21T06:59:20;101529.50;;;6.56;100.00
23241;BME280;11789;53.482;9.862;2023-02-21T07:01:46;101533.78;;;6.57;100.00
23241;BME280;11789;53.482;9.862;2023-02-21T07:04:11;101533.81;;;6.59;100.00
23241;BME280;11789;53.482;9.862;2023-02-21T07:06:37;101529.59;;;6.59;100.00
23241;BME280;11789;53.482;9.862;2023-02-21T07:09:03;101527.88;;;6.60;100.00
23241;BME280;11789;53.482;9.862;2023-02-21T07:11:30;101533.91;;;6.62;100.00
23241;BME280;11789;53.482;9.862;2023-02-21T07:13:57;101533.91;;;6.62;100.00
23241;BME280;11789;53.482;9.862;2023-02-21T07:16:24;101532.25;;;6.64;100.00
23241;BME280;11789;53.482;9.862;2023-02-21T07:18:50;101534.00;;;6.65;100.00
23241;BME280;11789;53.482;9.862;2023-02-21T07:21:16;101534.91;;;6.67;100.00
23241;BME280;11789;53.482;9.862;2023-02-21T07:23:43;101540.94;;;6.69;100.00
23241;BME280;11789;53.482;9.862;2023-02-21T07:26:09;101540.06;;;6.68;100.00
23241;BME280;11789;53.482;9.862;2023-02-21T07:28:34;101542.69;;;6.70;100.00
23241;BME280;11789;53.482;9.862;2023-02-21T07:30:59;101547.84;;;6.70;100.00
23241;BME280;11789;53.482;9.862;2023-02-21T07:33:25;101552.16;;;6.71;100.00
23241;BME280;11789;53.482;9.862;2023-02-21T07:35:50;101541.87;;;6.71;100.00
23241;BME280;11789;53.482;9.862;2023-02-21T07:38:24;101547.88;;;6.71;100.00
23241;BME280;11789;53.482;9.862;2023-02-21T07:40:53;101552.19;;;6.72;100.00
23241;BME280;11789;53.482;9.862;2023-02-21T07:43:19;101550.47;;;6.73;100.00
23241;BME280;11789;53.482;9.862;2023-02-21T07:45:44;101558.28;;;6.76;100.00
23241;BME280;11789;53.482;9.862;2023-02-21T07:48:10;101553.19;;;6.79;100.00
23241;BME280;11789;53.482;9.862;2023-02-21T07:50:39;101558.44;;;6.82;100.00
23241;BME280;11789;53.482;9.862;2023-02-21T07:53:05;101557.66;;;6.85;100.00
23241;BME280;11789;53.482;9.862;2023-02-21T07:55:30;101564.59;;;6.89;100.00
23241;BME280;11789;53.482;9.862;2023-02-21T07:57:57;101563.81;;;6.91;100.00
23241;BME280;11789;53.482;9.862;2023-02-21T08:00:22;101575.84;;;6.94;100.00
23241;BME280;11789;53.482;9.862;2023-02-21T08:02:50;101574.25;;;6.97;100.00
23241;BME280;11789;53.482;9.862;2023-02-21T08:05:17;101577.75;;;6.99;100.00
23241;BME280;11789;53.482;9.862;2023-02-21T08:07:42;101574.31;;;7.00;100.00
23241;BME280;11789;53.482;9.862;2023-02-21T08:10:09;101580.38;;;7.04;100.00
23241;BME280;11789;53.482;9.862;2023-02-21T08:12:35;101579.53;;;7.03;100.00
23241;BME280;11789;53.482;9.862;2023-02-21T08:15:00;101588.09;;;7.04;100.00
23241;BME280;11789;53.482;9.862;2023-02-21T08:17:25;101595.03;;;7.07;100.00
23241;BME280;11789;53.482;9.862;2023-02-21T08:19:51;101596.00;;;7.10;100.00
23241;BME280;11789;53.482;9.862;2023-02-21T08:22:17;101600.34;;;7.13;100.00
23241;BME280;11789;53.482;9.862;2023-02-21T08:24:42;101596.91;;;7.14;100.00
23241;BME280;11789;53.482;9.862;2023-02-21T08:27:09;101596.06;;;7.13;100.00
23241;BME280;11789;53.482;9.862;2023-02-21T08:29:34;101593.53;;;7.15;100.00
23241;BME280;11789;53.482;9.862;2023-02-21T08:32:00;101601.34;;;7.19;100.00
23241;BME280;11789;53.482;9.862;2023-02-21T08:34:25;101605.75;;;7.23;100.00
23241;BME280;11789;53.482;9.862;2023-02-21T08:36:54;101602.38;;;7.26;100.00
23241;BME280;11789;53.482;9.862;2023-02-21T08:39:19;101598.22;;;7.31;100.00
23241;BME280;11789;53.482;9.862;2023-02-21T08:41:46;101605.94;;;7.31;100.00
23241;BME280;11789;53.482;9.862;2023-02-21T08:44:16;101605.88;;;7.29;100.00
23241;BME280;11789;53.482;9.862;2023-02-21T08:46:42;101604.22;;;7.30;100.00
23241;BME280;11789;53.482;9.862;2023-02-21T08:49:08;101605.97;;;7.33;100.00
23241;BME280;11789;53.482;9.862;2023-02-21T08:51:34;101595.69;;;7.33;100.00
23241;BME280;11789;53.482;9.862;2023-02-21T08:54:00;101600.84;;;7.34;100.00
23241;BME280;11789;53.482;9.862;2023-02-21T08:56:26;101601.72;;;7.35;100.00
23241;BME280;11789;53.482;9.862;2023-02-21T08:58:52;101598.38;;;7.37;100.00
23241;BME280;11789;53.482;9.862;2023-02-21T09:01:22;101606.97;;;7.39;100.00
23241;BME280;11789;53.482;9.862;2023-02-21T09:03:48;101605.34;;;7.43;100.00
23241;BME280;11789;53.482;9.862;2023-02-21T09:06:14;101609.72;;;7.45;100.00
23241;BME280;11789;53.482;9.862;2023-02-21T09:08:39;101613.94;;;7.43;100.00
23241;BME280;11789;53.482;9.862;2023-02-21T09:11:06;101608.06;;;7.49;100.00
23241;BME280;11789;53.482;9.862;2023-02-21T09:13:33;101610.72;;;7.52;100.00
23241;BME280;11789;53.482;9.862;2023-02-21T09:16:00;101614.16;;;7.52;100.00
23241;BME280;11789;53.482;9.862;2023-02-21T09:18:27;101621.91;;;7.54;100.00
23241;BME280;11789;53.482;9.862;2023-02-21T09:20:53;101624.50;;;7.54;100.00
23241;BME280;11789;53.482;9.862;2023-02-21T09:23:23;101622.78;;;7.54;100.00
23241;BME280;11789;53.482;9.862;2023-02-21T09:25:49;101617.72;;;7.58;100.00
23241;BME280;11789;53.482;9.862;2023-02-21T09:28:15;101621.19;;;7.60;100.00
23241;BME280;11789;53.482;9.862;2023-02-21T09:30:41;101624.56;;;7.57;100.00
23241;BME280;11789;53.482;9.862;2023-02-21T09:33:07;101626.31;;;7.58;100.00
23241;BME280;11789;53.482;9.862;2023-02-21T09:35:33;101626.34;;;7.60;100.00
23241;BME280;11789;53.482;9.862;2023-02-21T09:38:00;101626.37;;;7.61;100.00
23241;BME280;11789;53.482;9.862;2023-02-21T09:43:09;101637.47;;;7.59;100.00
23241;BME280;11789;53.482;9.862;2023-02-21T09:45:36;101636.63;;;7.60;100.00
23241;BME280;11789;53.482;9.862;2023-02-21T09:48:14;101646.91;;;7.60;100.00
23241;BME280;11789;53.482;9.862;2023-02-21T09:50:47;101645.22;;;7.60;100.00
23241;BME280;11789;53.482;9.862;2023-02-21T09:53:18;101640.19;;;7.65;100.00
23241;BME280;11789;53.482;9.862;2023-02-21T09:55:45;101649.81;;;7.72;100.00
23241;BME280;11789;53.482;9.862;2023-02-21T09:58:17;101651.63;;;7.76;100.00
23241;BME280;11789;53.482;9.862;2023-02-21T10:00:42;101650.78;;;7.77;100.00
23241;BME280;11789;53.482;9.862;2023-02-21T10:05:45;101652.62;;;7.83;100.00
23241;BME280;11789;53.482;9.862;2023-02-21T10:10:50;101650.03;;;7.81;100.00
23241;BME280;11789;53.482;9.862;2023-02-21T10:19:40;101657.00;;;7.87;100.00
23241;BME280;11789;53.482;9.862;2023-02-21T10:22:29;101653.59;;;7.88;100.00
23241;BME280;11789;53.482;9.862;2023-02-21T10:24:56;101660.59;;;7.93;100.00
23241;BME280;11789;53.482;9.862;2023-02-21T10:27:26;101657.16;;;7.94;100.00
23241;BME280;11789;53.482;9.862;2023-02-21T10:30:02;101666.69;;;7.97;100.00
23241;BME280;11789;53.482;9.862;2023-02-21T10:32:30;101661.53;;;7.97;100.00
23241;BME280;11789;53.482;9.862;2023-02-21T10:34:56;101669.28;;;7.98;100.00
23241;BME280;11789;53.482;9.862;2023-02-21T10:37:38;101659.84;;;7.99;100.00
23241;BME280;11789;53.482;9.862;2023-02-21T10:40:28;101669.28;;;7.98;100.00
23241;BME280;11789;53.482;9.862;2023-02-21T10:43:01;101667.56;;;7.99;100.00
23241;BME280;11789;53.482;9.862;2023-02-21T10:45:52;101669.28;;;7.98;100.00
23241;BME280;11789;53.482;9.862;2023-02-21T10:48:19;101674.31;;;7.94;100.00
23241;BME280;11789;53.482;9.862;2023-02-21T10:53:34;101681.06;;;7.89;100.00
23241;BME280;11789;53.482;9.862;2023-02-21T10:59:05;101676.63;;;7.82;100.00
23241;BME280;11789;53.482;9.862;2023-02-21T11:01:31;101680.81;;;7.78;100.00
23241;BME280;11789;53.482;9.862;2023-02-21T11:04:06;101676.44;;;7.74;100.00
23241;BME280;11789;53.482;9.862;2023-02-21T11:06:35;101679.00;;;7.74;100.00
23241;BME280;11789;53.482;9.862;2023-02-21T11:09:17;101681.53;;;7.71;100.00
23241;BME280;11789;53.482;9.862;2023-02-21T11:11:47;101690.91;;;7.69;100.00
23241;BME280;11789;53.482;9.862;2023-02-21T11:14:21;101680.59;;;7.69;100.00
23241;BME280;11789;53.482;9.862;2023-02-21T11:17:11;101681.47;;;7.69;100.00
23241;BME280;11789;53.482;9.862;2023-02-21T11:19:52;101673.81;;;7.71;100.00
23241;BME280;11789;53.482;9.862;2023-02-21T11:22:42;101675.56;;;7.73;100.00
23241;BME280;11789;53.482;9.862;2023-02-21T11:27:37;101679.97;;;7.79;100.00
23241;BME280;11789;53.482;9.862;2023-02-21T11:30:19;101682.56;;;7.79;100.00
23241;BME280;11789;53.482;9.862;2023-02-21T11:32:52;101683.44;;;7.79;100.00
23241;BME280;11789;53.482;9.862;2023-02-21T11:37:51;101679.22;;;7.83;100.00
23241;BME280;11789;53.482;9.862;2023-02-21T11:42:51;101682.00;;;7.91;100.00
23241;BME280;11789;53.482;9.862;2023-02-21T11:45:36;101676.91;;;7.94;100.00
23241;BME280;11789;53.482;9.862;2023-02-21T11:48:12;101677.84;;;7.97;100.00
23241;BME280;11789;53.482;9.862;2023-02-21T11:50:45;101671.84;;;7.98;100.00
23241;BME280;11789;53.482;9.862;2023-02-21T11:53:22;101677.00;;;7.98;100.00
23241;BME280;11789;53.482;9.862;2023-02-21T11:58:47;101679.50;;;7.95;100.00
23241;BME280;11789;53.482;9.862;2023-02-21T12:01:26;101670.87;;;7.93;100.00
23241;BME280;11789;53.482;9.862;2023-02-21T12:06:44;101673.25;;;7.84;100.00
23241;BME280;11789;53.482;9.862;2023-02-21T12:09:53;101672.28;;;7.80;100.00
23241;BME280;11789;53.482;9.862;2023-02-21T12:29:28;101683.28;;;7.73;100.00
23241;BME280;11789;53.482;9.862;2023-02-21T12:46:20;101682.34;;;7.70;100.00
23241;BME280;11789;53.482;9.862;2023-02-21T12:49:15;101688.28;;;7.67;100.00
23241;BME280;11789;53.482;9.862;2023-02-21T12:51:56;101683.06;;;7.64;100.00
23241;BME280;11789;53.482;9.862;2023-02-21T12:54:35;101676.16;;;7.62;100.00
23241;BME280;11789;53.482;9.862;2023-02-21T13:04:12;101692.19;;;7.51;100.00
23241;BME280;11789;53.482;9.862;2023-02-21T13:09:48;101684.41;;;7.50;100.00
23241;BME280;11789;53.482;9.862;2023-02-21T13:15:24;101686.31;;;7.57;100.00
23241;BME280;11789;53.482;9.862;2023-02-21T13:20:23;101679.12;;;7.44;100.00
23241;BME280;11789;53.482;9.862;2023-02-21T13:28:51;101669.66;;;7.41;100.00
23241;BME280;11789;53.482;9.862;2023-02-21T13:31:20;101675.69;;;7.43;100.00
23241;BME280;11789;53.482;9.862;2023-02-21T13:34:00;101674.94;;;7.47;100.00
23241;BME280;11789;53.482;9.862;2023-02-21T13:36:32;101672.38;;;7.47;100.00
23241;BME280;11789;53.482;9.862;2023-02-21T13:41:46;101674.94;;;7.47;100.00
23241;BME280;11789;53.482;9.862;2023-02-21T13:44:34;101665.53;;;7.49;100.00
23241;BME280;11789;53.482;9.862;2023-02-21T13:47:11;101668.94;;;7.48;100.00
23241;BME280;11789;53.482;9.862;2023-02-21T13:49:55;101669.78;;;7.47;100.00
23241;BME280;11789;53.482;9.862;2023-02-21T13:52:25;101667.19;;;7.46;100.00
23241;BME280;11789;53.482;9.862;2023-02-21T13:57:38;101670.41;;;7.39;100.00
23241;BME280;11789;53.482;9.862;2023-02-21T14:03:00;101659.12;;;7.32;100.00
23241;BME280;11789;53.482;9.862;2023-02-21T14:08:32;101666.84;;;7.32;100.00
23241;BME280;11789;53.482;9.862;2023-02-21T14:13:41;101663.56;;;7.39;100.00
23241;BME280;11789;53.482;9.862;2023-02-21T14:19:01;101665.28;;;7.39;100.00
23241;BME280;11789;53.482;9.862;2023-02-21T14:21:42;101663.66;;;7.42;100.00
23241;BME280;11789;53.482;9.862;2023-02-21T14:31:55;101670.66;;;7.48;100.00
23241;BME280;11789;53.482;9.862;2023-02-21T14:39:40;101669.75;;;7.46;100.00
23241;BME280;11789;53.482;9.862;2023-02-21T14:42:35;101674.84;;;7.44;100.00
23241;BME280;11789;53.482;9.862;2023-02-21T14:50:27;101662.78;;;7.42;100.00
23241;BME280;11789;53.482;9.862;2023-02-21T14:56:06;101664.44;;;7.40;100.00
23241;BME280;11789;53.482;9.862;2023-02-21T15:01:42;101665.88;;;7.28;100.00
23241;BME280;11789;53.482;9.862;2023-02-21T15:07:27;101663.91;;;7.18;100.00
23241;BME280;11789;53.482;9.862;2023-02-21T15:10:10;101673.41;;;7.21;100.00
23241;BME280;11789;53.482;9.862;2023-02-21T15:13:00;101675.19;;;7.23;100.00
23241;BME280;11789;53.482;9.862;2023-02-21T15:15:32;101675.19;;;7.23;100.00
23241;BME280;11789;53.482;9.862;2023-02-21T15:18:05;101681.97;;;7.20;100.00
23241;BME280;11789;53.482;9.862;2023-02-21T15:20:33;101676.84;;;7.21;100.00
23241;BME280;11789;53.482;9.862;2023-02-21T15:23:06;101679.44;;;7.23;100.00
23241;BME280;11789;53.482;9.862;2023-02-21T15:25:35;101682.88;;;7.22;100.00
23241;BME280;11789;53.482;9.862;2023-02-21T15:28:02;101676.91;;;7.24;100.00
23241;BME280;11789;53.482;9.862;2023-02-21T15:30:34;101674.28;;;7.21;100.00
23241;BME280;11789;53.482;9.862;2023-02-21T15:33:07;101670.00;;;7.22;100.00
23241;BME280;11789;53.482;9.862;2023-02-21T15:35:38;101674.28;;;7.21;100.00
23241;BME280;11789;53.482;9.862;2023-02-21T15:38:12;101669.97;;;7.20;100.00
23241;BME280;11789;53.482;9.862;2023-02-21T15:40:39;101682.75;;;7.19;100.00
23241;BME280;11789;53.482;9.862;2023-02-21T15:43:06;101676.72;;;7.17;100.00
23241;BME280;11789;53.482;9.862;2023-02-21T15:45:41;101679.38;;;7.20;100.00
23241;BME280;11789;53.482;9.862;2023-02-21T15:48:08;101686.22;;;7.19;100.00
23241;BME280;11789;53.482;9.862;2023-02-21T15:50:40;101688.84;;;7.21;100.00
23241;BME280;11789;53.482;9.862;2023-02-21T15:53:20;101686.28;;;7.21;100.00
23241;BME280;11789;53.482;9.862;2023-02-21T15:55:47;101684.53;;;7.20;100.00
23241;BME280;11789;53.482;9.862;2023-02-21T15:58:23;101687.09;;;7.20;100.00
23241;BME280;11789;53.482;9.862;2023-02-21T16:01:07;101681.06;;;7.19;100.00
23241;BME280;11789;53.482;9.862;2023-02-21T16:03:42;101691.31;;;7.18;100.00